createdAt,value
2019-02-02T00:00:51.022Z,969.23
2019-02-02T00:02:01.100Z,969.20
2019-02-02T00:03:11.207Z,969.19
2019-02-02T00:04:22.048Z,969.18
2019-02-02T00:05:32.113Z,969.13
2019-02-02T00:06:42.192Z,969.08
2019-02-02T00:07:52.250Z,969.10
2019-02-02T00:09:02.312Z,969.09
2019-02-02T00:10:12.393Z,969.13
2019-02-02T00:11:22.455Z,969.15
2019-02-02T00:12:32.545Z,969.23
2019-02-02T00:13:42.617Z,969.27
2019-02-02T00:14:52.675Z,969.30
2019-02-02T00:16:02.746Z,969.34
2019-02-02T00:17:13.813Z,969.34
2019-02-02T00:18:24.871Z,969.28
2019-02-02T00:19:34.934Z,969.34
2019-02-02T00:20:45.618Z,969.35
2019-02-02T00:21:56.168Z,969.41
2019-02-02T00:23:06.227Z,969.42
2019-02-02T00:24:16.279Z,969.46
2019-02-02T00:25:26.348Z,969.47
2019-02-02T00:26:36.412Z,969.50
2019-02-02T00:27:46.481Z,969.52
2019-02-02T00:28:56.540Z,969.55
2019-02-02T00:30:06.601Z,969.51
2019-02-02T00:31:16.664Z,969.52
2019-02-02T00:32:26.729Z,969.48
2019-02-02T00:33:36.791Z,969.46
2019-02-02T00:34:46.862Z,969.49
2019-02-02T00:35:56.925Z,969.48
2019-02-02T00:37:06.989Z,969.53
2019-02-02T00:38:18.060Z,969.54
2019-02-02T00:39:28.122Z,969.60
2019-02-02T00:40:38.187Z,969.56
2019-02-02T00:41:48.244Z,969.57
2019-02-02T00:42:58.331Z,969.54
2019-02-02T00:44:08.395Z,969.56
2019-02-02T00:45:18.453Z,969.53
2019-02-02T00:46:28.514Z,969.54
2019-02-02T00:47:38.578Z,969.53
2019-02-02T00:48:48.644Z,969.48
2019-02-02T00:49:59.205Z,969.48
2019-02-02T00:51:09.262Z,969.42
2019-02-02T00:52:19.322Z,969.42
2019-02-02T00:53:29.388Z,969.39
2019-02-02T00:54:39.609Z,969.34
2019-02-02T00:55:49.672Z,969.33
2019-02-02T00:56:59.733Z,969.36
2019-02-02T00:58:09.804Z,969.37
2019-02-02T00:59:19.872Z,969.40
2019-02-02T01:00:30.427Z,969.45
2019-02-02T01:01:40.488Z,969.43
2019-02-02T01:02:50.544Z,969.48
2019-02-02T01:04:00.613Z,969.49
2019-02-02T01:05:10.674Z,969.52
2019-02-02T01:06:21.736Z,969.54
2019-02-02T01:07:31.793Z,969.56
2019-02-02T01:08:41.857Z,969.50
2019-02-02T01:09:51.915Z,969.50
2019-02-02T01:11:02.479Z,969.52
2019-02-02T01:12:12.547Z,969.55
2019-02-02T01:13:22.611Z,969.53
2019-02-02T01:14:33.675Z,969.56
2019-02-02T01:15:44.741Z,969.54
2019-02-02T01:16:54.807Z,969.52
2019-02-02T01:18:04.872Z,969.51
2019-02-02T01:19:14.928Z,969.48
2019-02-02T01:20:24.981Z,969.46
2019-02-02T01:21:35.054Z,969.48
2019-02-02T01:22:45.115Z,969.49
2019-02-02T01:23:55.174Z,969.52
2019-02-02T01:25:05.251Z,969.53
2019-02-02T01:26:15.309Z,969.57
2019-02-02T01:27:25.870Z,969.58
2019-02-02T01:28:35.942Z,969.58
2019-02-02T01:29:46.993Z,969.59
2019-02-02T01:30:57.054Z,969.56
2019-02-02T01:32:07.126Z,969.59
2019-02-02T01:33:17.175Z,969.56
2019-02-02T01:34:27.247Z,969.61
2019-02-02T01:35:37.307Z,969.61
2019-02-02T01:36:47.711Z,969.61
2019-02-02T01:37:57.768Z,969.64
2019-02-02T01:39:07.828Z,969.64
2019-02-02T01:40:17.884Z,969.60
2019-02-02T01:41:27.948Z,969.68
2019-02-02T01:42:38.012Z,969.65
2019-02-02T01:43:48.071Z,969.69
2019-02-02T01:44:58.123Z,969.72
2019-02-02T01:46:08.181Z,969.71
2019-02-02T01:47:18.241Z,969.75
2019-02-02T01:48:28.293Z,969.75
2019-02-02T01:49:39.351Z,969.73
2019-02-02T01:50:49.405Z,969.74
2019-02-02T01:52:00.462Z,969.71
2019-02-02T01:53:10.531Z,969.69
2019-02-02T01:54:20.616Z,969.68
2019-02-02T01:55:30.680Z,969.69
2019-02-02T01:56:40.740Z,969.70
2019-02-02T01:57:51.806Z,969.74
2019-02-02T01:59:02.862Z,969.75
2019-02-02T02:00:13.245Z,969.74
2019-02-02T02:01:23.319Z,969.79
2019-02-02T02:02:33.382Z,969.76
2019-02-02T02:03:43.442Z,969.80
2019-02-02T02:04:53.500Z,969.86
2019-02-02T02:06:03.566Z,969.82
2019-02-02T02:07:13.622Z,969.83
2019-02-02T02:08:23.677Z,969.76
2019-02-02T02:09:33.739Z,969.71
2019-02-02T02:10:44.313Z,969.68
2019-02-02T02:11:54.367Z,969.60
2019-02-02T02:13:16.488Z,969.58
2019-02-02T02:14:27.545Z,969.57
2019-02-02T02:15:37.599Z,969.56
2019-02-02T02:16:48.658Z,969.55
2019-02-02T02:17:59.209Z,969.54
2019-02-02T02:19:09.266Z,969.50
2019-02-02T02:20:20.318Z,969.51
2019-02-02T02:21:30.368Z,969.56
2019-02-02T02:22:41.617Z,969.60
2019-02-02T02:23:51.480Z,969.64
2019-02-02T02:25:02.529Z,969.68
2019-02-02T02:26:12.585Z,969.71
2019-02-02T02:27:22.644Z,969.76
2019-02-02T02:28:32.704Z,969.83
2019-02-02T02:29:42.754Z,969.81
2019-02-02T02:30:52.813Z,969.83
2019-02-02T02:32:02.863Z,969.86
2019-02-02T02:33:13.431Z,969.87
2019-02-02T02:34:23.492Z,969.85
2019-02-02T02:35:33.551Z,969.86
2019-02-02T02:36:43.595Z,969.88
2019-02-02T02:37:53.678Z,969.81
2019-02-02T02:39:03.730Z,969.80
2019-02-02T02:40:13.777Z,969.81
2019-02-02T02:41:24.316Z,969.82
2019-02-02T02:42:34.376Z,969.82
2019-02-02T02:43:44.442Z,969.80
2019-02-02T02:44:54.485Z,969.81
2019-02-02T02:46:04.539Z,969.76
2019-02-02T02:47:14.591Z,969.77
2019-02-02T02:48:24.671Z,969.74
2019-02-02T02:49:34.729Z,969.74
2019-02-02T02:50:44.777Z,969.73
2019-02-02T02:51:54.826Z,969.75
2019-02-02T02:53:04.887Z,969.68
2019-02-02T02:54:14.945Z,969.68
2019-02-02T02:55:24.998Z,969.66
2019-02-02T02:56:35.049Z,969.67
2019-02-02T02:57:45.123Z,969.68
2019-02-02T02:58:55.184Z,969.66
2019-02-02T03:00:05.243Z,969.65
2019-02-02T03:01:15.300Z,969.64
2019-02-02T03:02:26.352Z,969.58
2019-02-02T03:03:36.402Z,969.52
2019-02-02T03:04:46.448Z,969.52
2019-02-02T03:05:57.609Z,969.49
2019-02-02T03:07:07.659Z,969.51
2019-02-02T03:08:18.748Z,969.49
2019-02-02T03:09:28.801Z,969.48
2019-02-02T03:10:38.858Z,969.41
2019-02-02T03:11:48.904Z,969.37
2019-02-02T03:12:59.951Z,969.29
2019-02-02T03:14:10.016Z,969.25
2019-02-02T03:15:20.573Z,969.23
2019-02-02T03:16:30.606Z,969.19
2019-02-02T03:17:40.654Z,969.16
2019-02-02T03:18:51.264Z,969.14
2019-02-02T03:20:01.256Z,969.13
2019-02-02T03:21:11.304Z,969.09
2019-02-02T03:22:21.698Z,969.14
2019-02-02T03:23:32.248Z,969.20
2019-02-02T03:24:42.325Z,969.33
2019-02-02T03:25:52.367Z,969.37
2019-02-02T03:27:02.425Z,969.43
2019-02-02T03:28:12.573Z,969.45
2019-02-02T03:29:22.518Z,969.48
2019-02-02T03:30:32.577Z,969.49
2019-02-02T03:31:42.648Z,969.51
2019-02-02T03:32:52.692Z,969.47
2019-02-02T03:34:02.740Z,969.46
2019-02-02T03:35:12.808Z,969.47
2019-02-02T03:36:22.867Z,969.50
2019-02-02T03:37:33.422Z,969.54
2019-02-02T03:38:43.606Z,969.55
2019-02-02T03:39:54.163Z,969.57
2019-02-02T03:41:04.212Z,969.56
2019-02-02T03:42:14.258Z,969.59
2019-02-02T03:43:24.310Z,969.59
2019-02-02T03:44:34.360Z,969.57
2019-02-02T03:45:44.411Z,969.59
2019-02-02T03:46:54.477Z,969.55
2019-02-02T03:48:04.524Z,969.56
2019-02-02T03:49:14.579Z,969.55
2019-02-02T03:50:24.630Z,969.58
2019-02-02T03:51:34.687Z,969.55
2019-02-02T03:52:44.745Z,969.58
2019-02-02T03:53:54.797Z,969.66
2019-02-02T03:55:04.852Z,969.68
2019-02-02T03:56:14.919Z,969.72
2019-02-02T03:58:35.017Z,969.66
2019-02-02T03:59:45.071Z,969.61
2019-02-02T04:00:55.119Z,969.58
2019-02-02T04:02:05.176Z,969.56
2019-02-02T04:03:15.731Z,969.55
2019-02-02T04:04:25.779Z,969.53
2019-02-02T04:05:35.836Z,969.49
2019-02-02T04:06:46.379Z,969.49
2019-02-02T04:07:56.433Z,969.47
2019-02-02T04:09:06.481Z,969.48
2019-02-02T04:10:16.533Z,969.44
2019-02-02T04:11:26.621Z,969.40
2019-02-02T04:12:37.164Z,969.48
2019-02-02T04:13:47.747Z,969.49
2019-02-02T04:14:57.798Z,969.46
2019-02-02T04:16:07.849Z,969.41
2019-02-02T04:17:17.901Z,969.41
2019-02-02T04:18:27.949Z,969.48
2019-02-02T04:19:38.001Z,969.52
2019-02-02T04:20:48.080Z,969.48
2019-02-02T04:21:58.130Z,969.40
2019-02-02T04:23:08.675Z,969.33
2019-02-02T04:24:18.721Z,969.31
2019-02-02T04:25:28.776Z,969.29
2019-02-02T04:26:38.831Z,969.33
2019-02-02T04:27:48.897Z,969.48
2019-02-02T04:28:58.953Z,969.58
2019-02-02T04:30:09.017Z,969.59
2019-02-02T04:31:19.070Z,969.60
2019-02-02T04:32:29.117Z,969.68
2019-02-02T04:33:39.170Z,969.72
2019-02-02T04:34:49.221Z,969.79
2019-02-02T04:35:59.271Z,969.87
2019-02-02T04:37:09.329Z,969.92
2019-02-02T04:38:20.380Z,970.02
2019-02-02T04:39:30.431Z,970.06
2019-02-02T04:40:41.485Z,970.05
2019-02-02T04:41:51.534Z,970.00
2019-02-02T04:43:02.014Z,970.00
2019-02-02T04:44:12.640Z,970.02
2019-02-02T04:45:22.701Z,970.04
2019-02-02T04:46:32.752Z,970.06
2019-02-02T04:47:42.803Z,970.13
2019-02-02T04:48:52.870Z,970.13
2019-02-02T04:50:02.923Z,970.20
2019-02-02T04:51:12.999Z,970.22
2019-02-02T04:52:23.049Z,970.26
2019-02-02T04:53:33.102Z,970.25
2019-02-02T04:54:43.151Z,970.27
2019-02-02T04:55:53.220Z,970.27
2019-02-02T04:57:03.761Z,970.28
2019-02-02T04:58:13.826Z,970.28
2019-02-02T04:59:29.196Z,970.28
2019-02-02T05:00:34.440Z,970.28
2019-02-02T05:01:44.493Z,970.27
2019-02-02T05:02:54.557Z,970.30
2019-02-02T05:04:04.602Z,970.29
2019-02-02T05:05:14.685Z,970.28
2019-02-02T05:06:24.728Z,970.24
2019-02-02T05:07:34.777Z,970.24
2019-02-02T05:08:44.820Z,970.23
2019-02-02T05:09:54.868Z,970.25
2019-02-02T05:11:04.914Z,970.22
2019-02-02T05:12:14.968Z,970.20
2019-02-02T05:13:25.020Z,970.20
2019-02-02T05:14:35.553Z,970.23
2019-02-02T05:15:46.099Z,970.27
2019-02-02T05:16:56.150Z,970.26
2019-02-02T05:18:06.197Z,970.24
2019-02-02T05:19:16.244Z,970.29
2019-02-02T05:20:26.297Z,970.29
2019-02-02T05:21:36.354Z,970.27
2019-02-02T05:22:46.421Z,970.30
2019-02-02T05:23:56.466Z,970.34
2019-02-02T05:25:07.015Z,970.37
2019-02-02T05:26:17.071Z,970.39
2019-02-02T05:27:27.121Z,970.40
2019-02-02T05:28:37.681Z,970.41
2019-02-02T05:29:47.724Z,970.43
2019-02-02T05:30:57.778Z,970.40
2019-02-02T05:32:07.835Z,970.44
2019-02-02T05:33:17.891Z,970.43
2019-02-02T05:34:27.939Z,970.44
2019-02-02T05:35:37.992Z,970.50
2019-02-02T05:36:48.044Z,970.54
2019-02-02T05:37:58.095Z,970.52
2019-02-02T05:39:08.179Z,970.51
2019-02-02T05:40:18.222Z,970.56
2019-02-02T05:41:28.274Z,970.53
2019-02-02T05:42:38.327Z,970.56
2019-02-02T05:43:48.363Z,970.56
2019-02-02T05:44:58.415Z,970.60
2019-02-02T05:46:08.468Z,970.60
2019-02-02T05:47:18.518Z,970.58
2019-02-02T05:48:28.573Z,970.52
2019-02-02T05:49:38.618Z,970.44
2019-02-02T05:50:48.666Z,970.42
2019-02-02T05:51:58.725Z,970.41
2019-02-02T05:53:08.772Z,970.41
2019-02-02T05:54:18.844Z,970.39
2019-02-02T05:55:28.890Z,970.42
2019-02-02T05:56:39.439Z,970.47
2019-02-02T05:57:49.477Z,970.46
2019-02-02T05:58:59.523Z,970.49
2019-02-02T06:00:09.582Z,970.48
2019-02-02T06:01:19.631Z,970.43
2019-02-02T06:02:29.686Z,970.47
2019-02-02T06:03:39.734Z,970.47
2019-02-02T06:04:49.777Z,970.45
2019-02-02T06:05:59.824Z,970.46
2019-02-02T06:07:10.869Z,970.50
2019-02-02T06:08:20.926Z,970.53
2019-02-02T06:09:30.973Z,970.57
2019-02-02T06:10:41.020Z,970.59
2019-02-02T06:11:52.075Z,970.59
2019-02-02T06:13:02.748Z,970.66
2019-02-02T06:14:13.797Z,970.72
2019-02-02T06:15:23.846Z,970.77
2019-02-02T06:16:33.984Z,970.80
2019-02-02T06:17:45.434Z,970.84
2019-02-02T06:18:55.509Z,970.87
2019-02-02T06:20:05.558Z,970.84
2019-02-02T06:21:16.612Z,970.88
2019-02-02T06:22:26.667Z,970.89
2019-02-02T06:23:36.713Z,970.92
2019-02-02T06:24:47.773Z,970.96
2019-02-02T06:25:57.813Z,970.97
2019-02-02T06:27:07.872Z,970.98
2019-02-02T06:28:17.924Z,971.01
2019-02-02T06:29:27.978Z,971.01
2019-02-02T06:30:38.028Z,971.04
2019-02-02T06:31:49.066Z,971.09
2019-02-02T06:32:59.114Z,971.04
2019-02-02T06:34:09.159Z,971.06
2019-02-02T06:35:19.275Z,971.02
2019-02-02T06:36:29.296Z,970.96
2019-02-02T06:37:39.337Z,970.90
2019-02-02T06:38:49.381Z,970.90
2019-02-02T06:39:59.430Z,970.91
2019-02-02T06:41:09.492Z,970.88
2019-02-02T06:42:19.546Z,970.77
2019-02-02T06:43:30.370Z,970.75
2019-02-02T06:44:39.695Z,970.71
2019-02-02T06:45:49.751Z,970.71
2019-02-02T06:46:59.809Z,970.65
2019-02-02T06:48:09.849Z,970.66
2019-02-02T06:49:19.905Z,970.70
2019-02-02T06:50:29.954Z,970.76
2019-02-02T06:51:40.006Z,970.81
2019-02-02T06:52:50.061Z,970.84
2019-02-02T06:54:00.163Z,970.91
2019-02-02T06:55:10.205Z,970.92
2019-02-02T06:56:20.262Z,970.92
2019-02-02T06:57:30.328Z,970.97
2019-02-02T06:58:40.376Z,971.03
2019-02-02T06:59:50.425Z,971.03
2019-02-02T07:01:00.467Z,971.06
2019-02-02T07:02:10.511Z,971.04
2019-02-02T07:03:20.554Z,971.05
2019-02-02T07:04:30.597Z,971.04
2019-02-02T07:05:40.645Z,971.05
2019-02-02T07:06:50.685Z,971.05
2019-02-02T07:08:00.731Z,971.10
2019-02-02T07:09:10.780Z,971.11
2019-02-02T07:10:20.824Z,971.16
2019-02-02T07:11:30.869Z,971.23
2019-02-02T07:12:40.933Z,971.27
2019-02-02T07:13:50.961Z,971.28
2019-02-02T07:15:01.014Z,971.35
2019-02-02T07:16:11.064Z,971.45
2019-02-02T07:17:21.126Z,971.53
2019-02-02T07:18:31.189Z,971.63
2019-02-02T07:19:41.235Z,971.68
2019-02-02T07:20:51.292Z,971.75
2019-02-02T07:22:01.362Z,971.80
2019-02-02T07:23:11.421Z,971.86
2019-02-02T07:24:21.565Z,971.83
2019-02-02T07:25:31.659Z,971.85
2019-02-02T07:26:41.719Z,971.85
2019-02-02T07:27:51.816Z,971.87
2019-02-02T07:29:02.393Z,971.85
2019-02-02T07:30:12.466Z,971.83
2019-02-02T07:31:22.536Z,971.75
2019-02-02T07:32:32.617Z,971.68
2019-02-02T07:33:42.808Z,971.63
2019-02-02T07:34:52.793Z,971.64
2019-02-02T07:36:03.355Z,971.59
2019-02-02T07:37:13.616Z,971.54
2019-02-02T07:38:23.815Z,971.51
2019-02-02T07:39:34.206Z,971.53
2019-02-02T07:40:44.310Z,971.52
2019-02-02T07:41:54.395Z,971.48
2019-02-02T07:43:04.483Z,971.42
2019-02-02T07:44:14.571Z,971.42
2019-02-02T07:45:24.664Z,971.38
2019-02-02T07:46:35.742Z,971.32
2019-02-02T07:47:46.147Z,971.23
2019-02-02T07:48:56.244Z,971.17
2019-02-02T07:50:06.347Z,971.15
2019-02-02T07:51:16.462Z,971.12
2019-02-02T07:52:26.553Z,971.08
2019-02-02T07:53:36.654Z,971.04
2019-02-02T07:54:47.747Z,971.05
2019-02-02T07:55:58.845Z,971.09
2019-02-02T07:57:09.038Z,971.13
2019-02-02T07:58:19.144Z,971.13
2019-02-02T07:59:29.248Z,971.11
2019-02-02T08:00:41.230Z,971.05
2019-02-02T08:01:50.499Z,970.98
2019-02-02T08:03:00.602Z,970.91
2019-02-02T08:04:10.711Z,970.88
2019-02-02T08:05:20.816Z,970.82
2019-02-02T08:06:30.941Z,970.76
2019-02-02T08:07:42.051Z,970.79
2019-02-02T08:08:52.158Z,970.77
2019-02-02T08:10:02.266Z,970.75
2019-02-02T08:11:12.563Z,970.70
2019-02-02T08:12:22.683Z,970.71
2019-02-02T08:13:33.802Z,970.69
2019-02-02T08:14:43.925Z,970.69
2019-02-02T08:15:54.039Z,970.68
2019-02-02T08:17:04.148Z,970.68
2019-02-02T08:18:14.251Z,970.64
2019-02-02T08:19:25.769Z,970.63
2019-02-02T08:20:34.552Z,970.60
2019-02-02T08:21:44.686Z,970.56
2019-02-02T08:22:56.647Z,970.65
2019-02-02T08:24:04.915Z,970.63
2019-02-02T08:25:15.027Z,970.73
2019-02-02T08:26:25.125Z,970.74
2019-02-02T08:27:35.240Z,970.75
2019-02-02T08:28:45.345Z,970.75
2019-02-02T08:29:55.607Z,970.72
2019-02-02T08:31:05.707Z,970.69
2019-02-02T08:32:15.816Z,970.70
2019-02-02T08:33:25.906Z,970.74
2019-02-02T08:34:36.026Z,970.78
2019-02-02T08:35:46.316Z,970.86
2019-02-02T08:36:56.410Z,970.88
2019-02-02T08:38:06.504Z,970.97
2019-02-02T08:39:16.596Z,970.97
2019-02-02T08:40:26.682Z,970.95
2019-02-02T08:41:37.318Z,970.94
2019-02-02T08:42:47.415Z,970.91
2019-02-02T08:43:57.517Z,970.93
2019-02-02T08:45:07.609Z,970.96
2019-02-02T08:46:17.704Z,970.92
2019-02-02T08:47:27.797Z,970.89
2019-02-02T08:48:38.389Z,970.92
2019-02-02T08:49:48.985Z,971.03
2019-02-02T08:50:59.076Z,971.11
2019-02-02T08:52:09.169Z,971.26
2019-02-02T08:53:19.262Z,971.29
2019-02-02T08:54:29.633Z,971.22
2019-02-02T08:55:39.649Z,971.10
2019-02-02T08:56:49.737Z,971.09
2019-02-02T08:58:00.840Z,971.09
2019-02-02T08:59:10.934Z,971.13
2019-02-02T09:00:21.029Z,971.16
2019-02-02T09:01:31.120Z,971.14
2019-02-02T09:02:41.695Z,971.08
2019-02-02T09:03:52.302Z,971.02
2019-02-02T09:05:02.327Z,970.98
2019-02-02T09:06:12.480Z,970.97
2019-02-02T09:07:22.529Z,971.00
2019-02-02T09:08:32.842Z,970.99
2019-02-02T09:09:42.971Z,971.02
2019-02-02T09:10:53.090Z,970.99
2019-02-02T09:12:03.189Z,970.97
2019-02-02T09:13:13.288Z,970.98
2019-02-02T09:14:23.392Z,970.98
2019-02-02T09:15:33.499Z,970.98
2019-02-02T09:16:43.601Z,971.01
2019-02-02T09:17:53.712Z,971.00
2019-02-02T09:19:03.830Z,970.97
2019-02-02T09:20:13.936Z,970.94
2019-02-02T09:21:24.044Z,970.88
2019-02-02T09:22:34.146Z,970.83
2019-02-02T09:23:44.794Z,970.75
2019-02-02T09:24:54.906Z,970.76
2019-02-02T09:26:05.028Z,970.84
2019-02-02T09:27:15.132Z,970.88
2019-02-02T09:28:25.238Z,970.91
2019-02-02T09:29:35.347Z,970.91
2019-02-02T09:30:45.607Z,970.95
2019-02-02T09:31:55.718Z,970.86
2019-02-02T09:33:06.310Z,970.86
2019-02-02T09:34:16.411Z,970.82
2019-02-02T09:35:26.629Z,970.83
2019-02-02T09:36:36.739Z,970.88
2019-02-02T09:37:46.839Z,970.88
2019-02-02T09:38:56.932Z,970.91
2019-02-02T09:40:07.043Z,970.97
2019-02-02T09:41:17.138Z,970.98
2019-02-02T09:42:27.241Z,971.02
2019-02-02T09:43:39.585Z,971.05
2019-02-02T09:44:48.780Z,971.09
2019-02-02T09:45:58.876Z,971.10
2019-02-02T09:47:08.974Z,971.09
2019-02-02T09:48:19.092Z,971.17
2019-02-02T09:49:29.209Z,971.16
2019-02-02T09:50:39.308Z,971.19
2019-02-02T09:51:49.420Z,971.19
2019-02-02T09:52:59.518Z,971.26
2019-02-02T09:54:09.614Z,971.32
2019-02-02T09:55:19.720Z,971.35
2019-02-02T09:56:29.878Z,971.43
2019-02-02T09:57:40.472Z,971.46
2019-02-02T09:58:50.562Z,971.50
2019-02-02T10:00:00.660Z,971.52
2019-02-02T10:01:10.774Z,971.61
2019-02-02T10:02:21.114Z,971.68
2019-02-02T10:03:31.209Z,971.77
2019-02-02T10:04:41.297Z,971.84
2019-02-02T10:05:51.418Z,971.90
2019-02-02T10:07:01.546Z,971.95
2019-02-02T10:08:11.648Z,972.00
2019-02-02T10:09:21.754Z,972.07
2019-02-02T10:10:31.844Z,972.11
2019-02-02T10:11:41.932Z,972.13
2019-02-02T10:12:52.023Z,972.21
2019-02-02T10:14:02.138Z,972.23
2019-02-02T10:15:12.228Z,972.23
2019-02-02T10:16:22.325Z,972.29
2019-02-02T10:17:32.423Z,972.31
2019-02-02T10:18:42.536Z,972.30
2019-02-02T10:19:53.626Z,972.34
2019-02-02T10:21:04.439Z,972.36
2019-02-02T10:22:13.824Z,972.37
2019-02-02T10:23:23.911Z,972.39
2019-02-02T10:24:34.009Z,972.38
2019-02-02T10:25:44.110Z,972.45
2019-02-02T10:26:54.214Z,972.47
2019-02-02T10:28:04.299Z,972.51
2019-02-02T10:29:14.397Z,972.52
2019-02-02T10:30:24.494Z,972.53
2019-02-02T10:31:39.732Z,972.54
2019-02-02T10:32:44.672Z,972.57
2019-02-02T10:33:54.770Z,972.52
2019-02-02T10:35:04.866Z,972.57
2019-02-02T10:36:14.957Z,972.58
2019-02-02T10:37:25.601Z,972.55
2019-02-02T10:38:35.701Z,972.56
2019-02-02T10:39:45.800Z,972.53
2019-02-02T10:40:55.895Z,972.57
2019-02-02T10:42:05.997Z,972.62
2019-02-02T10:43:16.105Z,972.60
2019-02-02T10:44:26.197Z,972.63
2019-02-02T10:45:36.350Z,972.61
2019-02-02T10:46:46.439Z,972.59
2019-02-02T10:47:56.527Z,972.61
2019-02-02T10:49:06.623Z,972.60
2019-02-02T10:50:16.785Z,972.58
2019-02-02T10:51:26.926Z,972.61
2019-02-02T10:52:37.035Z,972.58
2019-02-02T10:53:47.228Z,972.61
2019-02-02T10:54:57.648Z,972.60
2019-02-02T10:56:07.789Z,972.61
2019-02-02T10:57:17.930Z,972.55
2019-02-02T10:58:28.042Z,972.61
2019-02-02T10:59:38.142Z,972.63
2019-02-02T11:00:48.244Z,972.67
2019-02-02T11:01:58.341Z,972.66
2019-02-02T11:03:08.436Z,972.69
2019-02-02T11:04:18.565Z,972.70
2019-02-02T11:05:28.623Z,972.69
2019-02-02T11:06:38.809Z,972.72
2019-02-02T11:07:49.004Z,972.74
2019-02-02T11:08:58.980Z,972.77
2019-02-02T11:10:09.169Z,972.78
2019-02-02T11:11:19.293Z,972.80
2019-02-02T11:12:29.287Z,972.78
2019-02-02T11:13:39.390Z,972.81
2019-02-02T11:14:49.577Z,972.80
2019-02-02T11:15:59.670Z,972.78
2019-02-02T11:17:09.736Z,972.79
2019-02-02T11:18:19.859Z,972.79
2019-02-02T11:19:29.980Z,972.79
2019-02-02T11:20:40.094Z,972.75
2019-02-02T11:21:50.196Z,972.73
2019-02-02T11:23:00.397Z,972.72
2019-02-02T11:24:10.416Z,972.73
2019-02-02T11:25:20.517Z,972.65
2019-02-02T11:26:30.686Z,972.64
2019-02-02T11:27:41.881Z,972.60
2019-02-02T11:28:51.876Z,972.62
2019-02-02T11:30:02.941Z,972.58
2019-02-02T11:31:13.047Z,972.58
2019-02-02T11:32:23.159Z,972.62
2019-02-02T11:33:33.271Z,972.58
2019-02-02T11:34:43.377Z,972.60
2019-02-02T11:35:53.498Z,972.61
2019-02-02T11:37:03.638Z,972.54
2019-02-02T11:38:13.760Z,972.59
2019-02-02T11:39:23.876Z,972.55
2019-02-02T11:40:33.992Z,972.54
2019-02-02T11:41:44.142Z,972.53
2019-02-02T11:42:54.258Z,972.51
2019-02-02T11:44:04.398Z,972.51
2019-02-02T11:45:14.555Z,972.63
2019-02-02T11:46:24.668Z,972.65
2019-02-02T11:47:34.795Z,972.68
2019-02-02T11:48:44.908Z,972.70
2019-02-02T11:49:56.016Z,972.67
2019-02-02T11:51:06.130Z,972.71
2019-02-02T11:52:16.242Z,972.75
2019-02-02T11:53:27.349Z,972.76
2019-02-02T11:54:37.618Z,972.78
2019-02-02T11:55:47.719Z,972.77
2019-02-02T11:56:57.833Z,972.83
2019-02-02T11:58:07.950Z,972.87
2019-02-02T11:59:18.056Z,972.86
2019-02-02T12:00:28.159Z,972.89
2019-02-02T12:01:38.258Z,972.88
2019-02-02T12:02:49.835Z,972.93
2019-02-02T12:03:59.605Z,972.89
2019-02-02T12:05:09.711Z,972.94
2019-02-02T12:06:20.807Z,972.99
2019-02-02T12:07:30.925Z,972.99
2019-02-02T12:08:41.031Z,973.03
2019-02-02T12:09:51.133Z,973.02
2019-02-02T12:11:01.255Z,973.03
2019-02-02T12:12:11.384Z,973.09
2019-02-02T12:13:21.637Z,973.10
2019-02-02T12:14:32.735Z,973.11
2019-02-02T12:15:42.855Z,973.11
2019-02-02T12:16:53.951Z,973.16
2019-02-02T12:18:04.054Z,973.18
2019-02-02T12:19:14.162Z,973.16
2019-02-02T12:20:24.300Z,973.17
2019-02-02T12:21:34.420Z,973.19
2019-02-02T12:22:44.539Z,973.24
2019-02-02T12:23:54.674Z,973.18
2019-02-02T12:25:04.754Z,973.27
2019-02-02T12:26:14.854Z,973.27
2019-02-02T12:27:24.959Z,973.29
2019-02-02T12:28:35.406Z,973.30
2019-02-02T12:29:45.509Z,973.33
2019-02-02T12:30:55.612Z,973.32
2019-02-02T12:32:05.730Z,973.34
2019-02-02T12:33:15.861Z,973.36
2019-02-02T12:34:25.992Z,973.37
2019-02-02T12:35:36.105Z,973.40
2019-02-02T12:36:46.214Z,973.40
2019-02-02T12:37:56.321Z,973.40
2019-02-02T12:39:06.441Z,973.41
2019-02-02T12:40:16.565Z,973.47
2019-02-02T12:41:26.664Z,973.48
2019-02-02T12:42:36.792Z,973.47
2019-02-02T12:43:46.943Z,973.54
2019-02-02T12:44:57.087Z,973.52
2019-02-02T12:46:07.196Z,973.57
2019-02-02T12:56:42.429Z,973.57
2019-02-02T12:57:52.858Z,973.65
2019-02-02T12:59:02.969Z,973.65
2019-02-02T13:00:13.139Z,973.71
2019-02-02T13:01:24.241Z,973.69
2019-02-02T13:02:38.282Z,973.65
2019-02-02T13:03:44.492Z,973.65
2019-02-02T13:04:54.606Z,973.65
2019-02-02T13:06:04.730Z,973.68
2019-02-02T13:07:14.832Z,973.69
2019-02-02T13:08:24.975Z,973.77
2019-02-02T13:09:35.082Z,973.84
2019-02-02T13:20:10.625Z,974.05
2019-02-02T13:21:20.729Z,974.07
2019-02-02T13:22:30.827Z,974.06
2019-02-02T13:23:40.925Z,974.09
2019-02-02T13:24:51.062Z,974.16
2019-02-02T13:26:05.616Z,974.14
2019-02-02T13:27:11.257Z,974.16
2019-02-02T13:28:21.364Z,974.18
2019-02-02T13:29:31.474Z,974.18
2019-02-02T13:40:06.779Z,974.38
2019-02-02T13:41:16.881Z,974.37
2019-02-02T13:42:26.985Z,974.32
2019-02-02T13:43:37.123Z,974.35
2019-02-02T13:44:47.231Z,974.27
2019-02-02T13:45:57.341Z,974.28
2019-02-02T13:47:07.619Z,974.20
2019-02-02T13:57:42.958Z,974.16
2019-02-02T13:58:53.411Z,974.19
2019-02-02T14:09:28.679Z,974.37
2019-02-02T14:10:38.815Z,974.38
2019-02-02T14:11:48.962Z,974.39
2019-02-02T14:12:59.064Z,974.44
2019-02-02T15:23:39.779Z,976.30
2019-02-02T15:24:52.323Z,976.24
2019-02-02T15:25:53.716Z,976.25
